Nicollet, Minnesota
Current Conditions -  °F | °C
As of 7:35 PM on Friday 24 Oct 2014 (Local Time) from KMKT Reporting Station
Clear Clear  
Wind Chill: 63°   Ceiling: Unl
Heat Index: 63°   Visibility: 10mi
Dew Point: 48°   Wind: 3mph
Humidity: 59%   Direction: 270°W
Pressure: 29.89"   Gusts: NA
Location:  44.28°N, 94.19°W
Report Text: KMKT 250035Z AUTO 27003KT 10SM CLR 17/09 A2989 RMK AO1
Loading
Personal Weather Stations






























Interactive Weather Map
Tropical Storm Tracking
New forecast layout! Learn more

10-Day Weather Forecast

Advertisements
Track Severe Weather on mobile